sensor_id;sensor_type;location;lat;lon;timestamp;temperature;humidity
18041;DHT22;9145;48.588;9.250;2023-06-22T00:01:14;22.60;99.90
18041;DHT22;9145;48.588;9.250;2023-06-22T00:03:41;22.50;99.90
18041;DHT22;9145;48.588;9.250;2023-06-22T00:06:08;22.50;99.90
18041;DHT22;9145;48.588;9.250;2023-06-22T00:08:34;22.50;99.90
18041;DHT22;9145;48.588;9.250;2023-06-22T00:11:01;22.50;99.90
18041;DHT22;9145;48.588;9.250;2023-06-22T00:13:28;22.40;99.90
18041;DHT22;9145;48.588;9.250;2023-06-22T00:15:56;22.40;99.90
18041;DHT22;9145;48.588;9.250;2023-06-22T00:18:23;22.40;99.90
18041;DHT22;9145;48.588;9.250;2023-06-22T00:20:53;22.40;99.90
18041;DHT22;9145;48.588;9.250;2023-06-22T00:23:22;22.40;99.90
18041;DHT22;9145;48.588;9.250;2023-06-22T00:25:50;22.40;99.90
18041;DHT22;9145;48.588;9.250;2023-06-22T00:28:16;22.30;99.90
18041;DHT22;9145;48.588;9.250;2023-06-22T00:30:43;22.30;99.90
18041;DHT22;9145;48.588;9.250;2023-06-22T00:33:12;22.20;99.90
18041;DHT22;9145;48.588;9.250;2023-06-22T00:35:39;22.20;99.90
18041;DHT22;9145;48.588;9.250;2023-06-22T00:38:06;22.30;99.90
18041;DHT22;9145;48.588;9.250;2023-06-22T00:40:34;22.30;99.90
18041;DHT22;9145;48.588;9.250;2023-06-22T00:43:01;22.30;99.90
18041;DHT22;9145;48.588;9.250;2023-06-22T00:45:27;22.20;99.90
18041;DHT22;9145;48.588;9.250;2023-06-22T00:47:56;22.10;99.90
18041;DHT22;9145;48.588;9.250;2023-06-22T00:50:26;22.10;99.90
18041;DHT22;9145;48.588;9.250;2023-06-22T00:52:54;22.10;99.90
18041;DHT22;9145;48.588;9.250;2023-06-22T00:55:22;22.10;99.90
18041;DHT22;9145;48.588;9.250;2023-06-22T00:57:49;22.00;99.90
18041;DHT22;9145;48.588;9.250;2023-06-22T01:00:21;21.90;99.90
18041;DHT22;9145;48.588;9.250;2023-06-22T01:02:50;21.90;99.90
18041;DHT22;9145;48.588;9.250;2023-06-22T01:05:18;21.80;99.90
18041;DHT22;9145;48.588;9.250;2023-06-22T01:07:58;21.70;99.90
18041;DHT22;9145;48.588;9.250;2023-06-22T01:10:30;21.70;99.90
18041;DHT22;9145;48.588;9.250;2023-06-22T01:13:02;21.70;99.90
18041;DHT22;9145;48.588;9.250;2023-06-22T01:15:36;21.70;99.90
18041;DHT22;9145;48.588;9.250;2023-06-22T01:18:04;21.70;99.90
18041;DHT22;9145;48.588;9.250;2023-06-22T01:20:33;21.70;99.90
18041;DHT22;9145;48.588;9.250;2023-06-22T01:23:09;21.70;99.90
18041;DHT22;9145;48.588;9.250;2023-06-22T01:25:45;21.70;99.90
18041;DHT22;9145;48.588;9.250;2023-06-22T01:28:30;21.60;99.90
18041;DHT22;9145;48.588;9.250;2023-06-22T01:30:58;21.70;99.90
18041;DHT22;9145;48.588;9.250;2023-06-22T01:33:33;21.60;99.90
18041;DHT22;9145;48.588;9.250;2023-06-22T01:36:01;21.60;99.90
18041;DHT22;9145;48.588;9.250;2023-06-22T01:38:29;21.60;99.90
18041;DHT22;9145;48.588;9.250;2023-06-22T01:40:57;21.60;99.90
18041;DHT22;9145;48.588;9.250;2023-06-22T01:43:25;21.60;99.90
18041;DHT22;9145;48.588;9.250;2023-06-22T01:45:55;21.60;99.90
18041;DHT22;9145;48.588;9.250;2023-06-22T01:48:22;21.60;99.90
18041;DHT22;9145;48.588;9.250;2023-06-22T01:50:51;21.70;99.90
18041;DHT22;9145;48.588;9.250;2023-06-22T01:53:20;21.70;99.90
18041;DHT22;9145;48.588;9.250;2023-06-22T01:55:50;21.70;99.90
18041;DHT22;9145;48.588;9.250;2023-06-22T01:58:17;21.60;99.90
18041;DHT22;9145;48.588;9.250;2023-06-22T02:00:51;21.60;99.90
18041;DHT22;9145;48.588;9.250;2023-06-22T02:03:25;21.60;99.90
18041;DHT22;9145;48.588;9.250;2023-06-22T02:06:01;21.60;99.90
18041;DHT22;9145;48.588;9.250;2023-06-22T02:08:32;21.50;99.90
18041;DHT22;9145;48.588;9.250;2023-06-22T02:11:02;21.50;99.90
18041;DHT22;9145;48.588;9.250;2023-06-22T02:13:30;21.50;99.90
18041;DHT22;9145;48.588;9.250;2023-06-22T02:15:58;21.40;99.90
18041;DHT22;9145;48.588;9.250;2023-06-22T02:18:27;21.50;99.90
18041;DHT22;9145;48.588;9.250;2023-06-22T02:20:54;21.40;99.90
18041;DHT22;9145;48.588;9.250;2023-06-22T02:23:21;21.30;99.90
18041;DHT22;9145;48.588;9.250;2023-06-22T02:25:48;21.20;99.90
18041;DHT22;9145;48.588;9.250;2023-06-22T02:28:14;21.10;99.90
18041;DHT22;9145;48.588;9.250;2023-06-22T02:30:41;21.00;99.90
18041;DHT22;9145;48.588;9.250;2023-06-22T02:33:08;20.90;99.90
18041;DHT22;9145;48.588;9.250;2023-06-22T02:35:36;20.90;99.90
18041;DHT22;9145;48.588;9.250;2023-06-22T02:38:03;20.90;99.90
18041;DHT22;9145;48.588;9.250;2023-06-22T02:40:31;20.90;99.90
18041;DHT22;9145;48.588;9.250;2023-06-22T02:42:59;20.90;99.90
18041;DHT22;9145;48.588;9.250;2023-06-22T02:45:28;20.90;99.90
18041;DHT22;9145;48.588;9.250;2023-06-22T02:47:55;20.90;99.90
18041;DHT22;9145;48.588;9.250;2023-06-22T02:50:22;20.90;99.90
18041;DHT22;9145;48.588;9.250;2023-06-22T02:52:50;20.90;99.90
18041;DHT22;9145;48.588;9.250;2023-06-22T02:55:17;20.90;99.90
18041;DHT22;9145;48.588;9.250;2023-06-22T02:57:44;20.90;99.90
18041;DHT22;9145;48.588;9.250;2023-06-22T03:00:13;20.90;99.90
18041;DHT22;9145;48.588;9.250;2023-06-22T03:02:42;20.90;99.90
18041;DHT22;9145;48.588;9.250;2023-06-22T03:05:10;20.90;99.90
18041;DHT22;9145;48.588;9.250;2023-06-22T03:07:39;21.00;99.90
18041;DHT22;9145;48.588;9.250;2023-06-22T03:10:09;21.00;99.90
18041;DHT22;9145;48.588;9.250;2023-06-22T03:12:36;20.90;99.90
18041;DHT22;9145;48.588;9.250;2023-06-22T03:15:05;20.90;99.90
18041;DHT22;9145;48.588;9.250;2023-06-22T03:17:33;20.90;99.90
18041;DHT22;9145;48.588;9.250;2023-06-22T03:20:00;20.80;99.90
18041;DHT22;9145;48.588;9.250;2023-06-22T03:22:32;20.70;99.90
18041;DHT22;9145;48.588;9.250;2023-06-22T03:24:59;20.60;99.90
18041;DHT22;9145;48.588;9.250;2023-06-22T03:27:27;20.60;99.90
18041;DHT22;9145;48.588;9.250;2023-06-22T03:29:54;20.60;99.90
18041;DHT22;9145;48.588;9.250;2023-06-22T03:32:21;20.60;99.90
18041;DHT22;9145;48.588;9.250;2023-06-22T03:34:47;20.60;99.90
18041;DHT22;9145;48.588;9.250;2023-06-22T03:37:15;20.60;99.90
18041;DHT22;9145;48.588;9.250;2023-06-22T03:39:42;20.60;99.90
18041;DHT22;9145;48.588;9.250;2023-06-22T03:42:08;20.60;99.90
18041;DHT22;9145;48.588;9.250;2023-06-22T03:44:37;20.70;99.90
18041;DHT22;9145;48.588;9.250;2023-06-22T03:47:04;20.70;99.90
18041;DHT22;9145;48.588;9.250;2023-06-22T03:49:32;20.70;99.90
18041;DHT22;9145;48.588;9.250;2023-06-22T03:52:00;20.70;99.90
18041;DHT22;9145;48.588;9.250;2023-06-22T03:54:27;20.70;99.90
18041;DHT22;9145;48.588;9.250;2023-06-22T03:56:57;20.60;99.90
18041;DHT22;9145;48.588;9.250;2023-06-22T03:59:24;20.70;99.90
18041;DHT22;9145;48.588;9.250;2023-06-22T04:01:52;20.80;99.90
18041;DHT22;9145;48.588;9.250;2023-06-22T04:04:19;20.80;99.90
18041;DHT22;9145;48.588;9.250;2023-06-22T04:06:46;20.80;99.90
18041;DHT22;9145;48.588;9.250;2023-06-22T04:09:13;20.70;99.90
18041;DHT22;9145;48.588;9.250;2023-06-22T04:11:40;20.80;99.90
18041;DHT22;9145;48.588;9.250;2023-06-22T04:14:06;20.70;99.90
18041;DHT22;9145;48.588;9.250;2023-06-22T04:16:33;20.80;99.90
18041;DHT22;9145;48.588;9.250;2023-06-22T04:19:01;20.70;99.90
18041;DHT22;9145;48.588;9.250;2023-06-22T04:21:28;20.70;99.90
18041;DHT22;9145;48.588;9.250;2023-06-22T04:23:55;20.70;99.90
18041;DHT22;9145;48.588;9.250;2023-06-22T04:26:22;20.70;99.90
18041;DHT22;9145;48.588;9.250;2023-06-22T04:28:48;20.80;99.90
18041;DHT22;9145;48.588;9.250;2023-06-22T04:31:17;20.80;99.90
18041;DHT22;9145;48.588;9.250;2023-06-22T04:33:44;20.80;99.90
18041;DHT22;9145;48.588;9.250;2023-06-22T04:36:12;20.90;99.90
18041;DHT22;9145;48.588;9.250;2023-06-22T04:38:38;21.00;99.90
18041;DHT22;9145;48.588;9.250;2023-06-22T04:41:05;21.10;99.90
18041;DHT22;9145;48.588;9.250;2023-06-22T04:43:35;21.10;99.90
18041;DHT22;9145;48.588;9.250;2023-06-22T04:46:01;21.10;99.90
18041;DHT22;9145;48.588;9.250;2023-06-22T04:48:29;21.20;99.90
18041;DHT22;9145;48.588;9.250;2023-06-22T04:50:58;21.20;99.90
18041;DHT22;9145;48.588;9.250;2023-06-22T04:53:31;21.10;99.90
18041;DHT22;9145;48.588;9.250;2023-06-22T04:55:58;21.20;99.90
18041;DHT22;9145;48.588;9.250;2023-06-22T04:58:25;21.30;99.90
18041;DHT22;9145;48.588;9.250;2023-06-22T05:00:54;21.20;99.90
18041;DHT22;9145;48.588;9.250;2023-06-22T05:03:24;21.30;99.90
18041;DHT22;9145;48.588;9.250;2023-06-22T05:05:52;21.30;99.90
18041;DHT22;9145;48.588;9.250;2023-06-22T05:08:19;21.30;99.90
18041;DHT22;9145;48.588;9.250;2023-06-22T05:10:47;21.30;99.90
18041;DHT22;9145;48.588;9.250;2023-06-22T05:13:14;21.40;99.90
18041;DHT22;9145;48.588;9.250;2023-06-22T05:15:41;21.40;99.90
18041;DHT22;9145;48.588;9.250;2023-06-22T05:18:07;21.40;99.90
18041;DHT22;9145;48.588;9.250;2023-06-22T05:20:34;21.40;99.90
18041;DHT22;9145;48.588;9.250;2023-06-22T05:23:01;21.50;99.90
18041;DHT22;9145;48.588;9.250;2023-06-22T05:25:28;21.50;99.90
18041;DHT22;9145;48.588;9.250;2023-06-22T05:27:59;21.60;99.90
18041;DHT22;9145;48.588;9.250;2023-06-22T05:30:27;21.70;99.90
18041;DHT22;9145;48.588;9.250;2023-06-22T05:32:54;21.80;99.90
18041;DHT22;9145;48.588;9.250;2023-06-22T05:35:20;21.80;99.90
18041;DHT22;9145;48.588;9.250;2023-06-22T05:37:47;21.90;99.90
18041;DHT22;9145;48.588;9.250;2023-06-22T05:40:14;22.00;99.90
18041;DHT22;9145;48.588;9.250;2023-06-22T05:42:41;22.00;99.90
18041;DHT22;9145;48.588;9.250;2023-06-22T05:45:09;22.10;99.90
18041;DHT22;9145;48.588;9.250;2023-06-22T05:47:36;22.20;99.90
18041;DHT22;9145;48.588;9.250;2023-06-22T05:50:04;22.20;99.90
18041;DHT22;9145;48.588;9.250;2023-06-22T05:52:32;22.40;99.90
18041;DHT22;9145;48.588;9.250;2023-06-22T05:54:59;22.40;99.90
18041;DHT22;9145;48.588;9.250;2023-06-22T05:57:25;22.50;99.90
18041;DHT22;9145;48.588;9.250;2023-06-22T05:59:52;22.60;99.90
18041;DHT22;9145;48.588;9.250;2023-06-22T06:02:21;22.70;99.90
18041;DHT22;9145;48.588;9.250;2023-06-22T06:04:48;22.80;99.90
18041;DHT22;9145;48.588;9.250;2023-06-22T06:07:16;22.90;99.90
18041;DHT22;9145;48.588;9.250;2023-06-22T06:09:43;22.80;99.90
18041;DHT22;9145;48.588;9.250;2023-06-22T06:12:10;22.80;99.90
18041;DHT22;9145;48.588;9.250;2023-06-22T06:14:37;22.70;99.90
18041;DHT22;9145;48.588;9.250;2023-06-22T06:17:03;22.70;99.90
18041;DHT22;9145;48.588;9.250;2023-06-22T06:19:32;22.90;99.90
18041;DHT22;9145;48.588;9.250;2023-06-22T06:21:58;23.10;99.90
18041;DHT22;9145;48.588;9.250;2023-06-22T06:24:26;23.10;99.90
18041;DHT22;9145;48.588;9.250;2023-06-22T06:26:52;23.20;99.90
18041;DHT22;9145;48.588;9.250;2023-06-22T06:29:19;23.30;99.90
18041;DHT22;9145;48.588;9.250;2023-06-22T06:31:46;23.40;99.90
18041;DHT22;9145;48.588;9.250;2023-06-22T06:34:13;23.40;99.90
18041;DHT22;9145;48.588;9.250;2023-06-22T06:36:41;23.40;99.90
18041;DHT22;9145;48.588;9.250;2023-06-22T06:39:09;23.40;99.90
18041;DHT22;9145;48.588;9.250;2023-06-22T06:41:36;23.50;99.90
18041;DHT22;9145;48.588;9.250;2023-06-22T06:44:03;23.50;99.90
18041;DHT22;9145;48.588;9.250;2023-06-22T06:46:30;23.60;99.90
18041;DHT22;9145;48.588;9.250;2023-06-22T06:48:57;23.90;99.90
18041;DHT22;9145;48.588;9.250;2023-06-22T06:51:24;24.10;99.90
18041;DHT22;9145;48.588;9.250;2023-06-22T06:53:52;24.00;99.90
18041;DHT22;9145;48.588;9.250;2023-06-22T06:56:19;24.00;99.90
18041;DHT22;9145;48.588;9.250;2023-06-22T06:58:45;23.90;99.90
18041;DHT22;9145;48.588;9.250;2023-06-22T07:01:12;24.00;99.90
18041;DHT22;9145;48.588;9.250;2023-06-22T07:03:39;24.10;99.90
18041;DHT22;9145;48.588;9.250;2023-06-22T07:06:06;24.20;99.90
18041;DHT22;9145;48.588;9.250;2023-06-22T07:08:33;24.10;99.90
18041;DHT22;9145;48.588;9.250;2023-06-22T07:11:02;24.20;99.90
18041;DHT22;9145;48.588;9.250;2023-06-22T07:13:29;24.30;99.90
18041;DHT22;9145;48.588;9.250;2023-06-22T07:15:55;24.40;99.90
18041;DHT22;9145;48.588;9.250;2023-06-22T07:18:23;24.60;99.90
18041;DHT22;9145;48.588;9.250;2023-06-22T07:20:50;24.70;99.90
18041;DHT22;9145;48.588;9.250;2023-06-22T07:23:17;24.80;99.90
18041;DHT22;9145;48.588;9.250;2023-06-22T07:25:43;24.90;99.90
18041;DHT22;9145;48.588;9.250;2023-06-22T07:28:12;24.90;99.90
18041;DHT22;9145;48.588;9.250;2023-06-22T07:30:38;25.00;99.90
18041;DHT22;9145;48.588;9.250;2023-06-22T07:33:05;25.00;99.90
18041;DHT22;9145;48.588;9.250;2023-06-22T07:35:34;25.20;99.90
18041;DHT22;9145;48.588;9.250;2023-06-22T07:38:01;25.40;99.90
18041;DHT22;9145;48.588;9.250;2023-06-22T07:40:27;25.50;99.90
18041;DHT22;9145;48.588;9.250;2023-06-22T07:42:54;25.60;99.90
18041;DHT22;9145;48.588;9.250;2023-06-22T07:45:22;25.80;99.90
18041;DHT22;9145;48.588;9.250;2023-06-22T07:47:50;26.00;99.90
18041;DHT22;9145;48.588;9.250;2023-06-22T07:50:16;26.10;99.90
18041;DHT22;9145;48.588;9.250;2023-06-22T07:52:43;26.10;99.90
18041;DHT22;9145;48.588;9.250;2023-06-22T07:55:10;26.20;99.90
18041;DHT22;9145;48.588;9.250;2023-06-22T07:57:37;26.20;99.90
18041;DHT22;9145;48.588;9.250;2023-06-22T08:00:05;26.10;99.90
18041;DHT22;9145;48.588;9.250;2023-06-22T08:02:39;26.20;99.90
18041;DHT22;9145;48.588;9.250;2023-06-22T08:05:07;26.30;99.90
18041;DHT22;9145;48.588;9.250;2023-06-22T08:07:34;26.40;99.90
18041;DHT22;9145;48.588;9.250;2023-06-22T08:10:01;26.30;99.90
18041;DHT22;9145;48.588;9.250;2023-06-22T08:12:28;26.50;99.90
18041;DHT22;9145;48.588;9.250;2023-06-22T08:14:54;26.70;99.90
18041;DHT22;9145;48.588;9.250;2023-06-22T08:17:22;26.90;99.90
18041;DHT22;9145;48.588;9.250;2023-06-22T08:19:50;26.80;99.90
18041;DHT22;9145;48.588;9.250;2023-06-22T08:22:17;26.70;99.90
18041;DHT22;9145;48.588;9.250;2023-06-22T08:24:44;26.60;99.90
18041;DHT22;9145;48.588;9.250;2023-06-22T08:27:11;26.60;99.90
18041;DHT22;9145;48.588;9.250;2023-06-22T08:29:38;26.60;99.90
18041;DHT22;9145;48.588;9.250;2023-06-22T08:32:08;26.70;99.90
18041;DHT22;9145;48.588;9.250;2023-06-22T08:34:35;26.80;99.90
18041;DHT22;9145;48.588;9.250;2023-06-22T08:37:04;26.80;99.90
18041;DHT22;9145;48.588;9.250;2023-06-22T08:39:31;26.90;99.90
18041;DHT22;9145;48.588;9.250;2023-06-22T08:41:59;27.00;99.90
18041;DHT22;9145;48.588;9.250;2023-06-22T08:44:26;27.20;99.90
18041;DHT22;9145;48.588;9.250;2023-06-22T08:46:52;27.20;99.90
18041;DHT22;9145;48.588;9.250;2023-06-22T08:49:19;27.40;99.90
18041;DHT22;9145;48.588;9.250;2023-06-22T08:51:46;27.50;99.90
18041;DHT22;9145;48.588;9.250;2023-06-22T08:54:16;27.50;99.90
18041;DHT22;9145;48.588;9.250;2023-06-22T08:56:43;27.50;99.90
18041;DHT22;9145;48.588;9.250;2023-06-22T08:59:10;27.50;99.90
18041;DHT22;9145;48.588;9.250;2023-06-22T09:01:37;27.80;99.90
18041;DHT22;9145;48.588;9.250;2023-06-22T09:04:04;28.10;99.90
18041;DHT22;9145;48.588;9.250;2023-06-22T09:06:32;28.30;99.90
18041;DHT22;9145;48.588;9.250;2023-06-22T09:08:59;28.50;99.90
18041;DHT22;9145;48.588;9.250;2023-06-22T09:11:27;28.70;99.90
18041;DHT22;9145;48.588;9.250;2023-06-22T09:13:54;28.70;99.90
18041;DHT22;9145;48.588;9.250;2023-06-22T09:16:21;28.70;99.90
18041;DHT22;9145;48.588;9.250;2023-06-22T09:18:48;28.70;99.90
18041;DHT22;9145;48.588;9.250;2023-06-22T09:21:15;28.70;99.90
18041;DHT22;9145;48.588;9.250;2023-06-22T09:23:42;28.80;99.90
18041;DHT22;9145;48.588;9.250;2023-06-22T09:26:09;28.70;99.90
18041;DHT22;9145;48.588;9.250;2023-06-22T09:28:38;28.60;99.90
18041;DHT22;9145;48.588;9.250;2023-06-22T09:31:04;28.50;99.90
18041;DHT22;9145;48.588;9.250;2023-06-22T09:33:32;28.40;99.90
18041;DHT22;9145;48.588;9.250;2023-06-22T09:35:59;28.50;99.90
18041;DHT22;9145;48.588;9.250;2023-06-22T09:38:25;28.50;99.90
18041;DHT22;9145;48.588;9.250;2023-06-22T09:40:52;28.50;99.90
18041;DHT22;9145;48.588;9.250;2023-06-22T09:43:19;28.60;99.90
18041;DHT22;9145;48.588;9.250;2023-06-22T09:45:47;28.70;99.90
18041;DHT22;9145;48.588;9.250;2023-06-22T09:48:14;28.80;99.90
18041;DHT22;9145;48.588;9.250;2023-06-22T09:50:41;28.90;99.90
18041;DHT22;9145;48.588;9.250;2023-06-22T09:53:07;29.20;99.90
18041;DHT22;9145;48.588;9.250;2023-06-22T09:55:34;29.40;99.90
18041;DHT22;9145;48.588;9.250;2023-06-22T09:58:01;29.50;99.90
18041;DHT22;9145;48.588;9.250;2023-06-22T10:00:28;29.80;99.90
18041;DHT22;9145;48.588;9.250;2023-06-22T10:02:56;30.00;99.90
18041;DHT22;9145;48.588;9.250;2023-06-22T10:05:23;30.00;99.90
18041;DHT22;9145;48.588;9.250;2023-06-22T10:07:51;29.80;99.90
18041;DHT22;9145;48.588;9.250;2023-06-22T10:10:18;29.60;99.90
18041;DHT22;9145;48.588;9.250;2023-06-22T10:12:46;29.50;99.90
18041;DHT22;9145;48.588;9.250;2023-06-22T10:15:13;29.50;99.90
18041;DHT22;9145;48.588;9.250;2023-06-22T10:17:40;29.50;99.90
18041;DHT22;9145;48.588;9.250;2023-06-22T10:20:09;29.40;99.90
18041;DHT22;9145;48.588;9.250;2023-06-22T10:22:38;29.40;99.90
18041;DHT22;9145;48.588;9.250;2023-06-22T10:25:07;29.60;99.90
18041;DHT22;9145;48.588;9.250;2023-06-22T10:27:34;29.70;99.90
18041;DHT22;9145;48.588;9.250;2023-06-22T10:30:01;30.00;99.90
18041;DHT22;9145;48.588;9.250;2023-06-22T10:32:28;30.40;99.90
18041;DHT22;9145;48.588;9.250;2023-06-22T10:34:54;30.70;99.90
18041;DHT22;9145;48.588;9.250;2023-06-22T10:37:23;31.20;99.90
18041;DHT22;9145;48.588;9.250;2023-06-22T10:39:49;31.70;99.90
18041;DHT22;9145;48.588;9.250;2023-06-22T10:42:16;32.00;99.90
18041;DHT22;9145;48.588;9.250;2023-06-22T10:44:43;32.20;99.90
18041;DHT22;9145;48.588;9.250;2023-06-22T10:47:10;31.90;99.90
18041;DHT22;9145;48.588;9.250;2023-06-22T10:49:38;31.70;99.90
18041;DHT22;9145;48.588;9.250;2023-06-22T10:52:06;31.90;99.90
18041;DHT22;9145;48.588;9.250;2023-06-22T10:54:34;31.70;99.90
18041;DHT22;9145;48.588;9.250;2023-06-22T10:57:01;31.60;99.90
18041;DHT22;9145;48.588;9.250;2023-06-22T10:59:28;31.50;99.90
18041;DHT22;9145;48.588;9.250;2023-06-22T11:01:55;31.60;99.90
18041;DHT22;9145;48.588;9.250;2023-06-22T11:04:23;31.60;99.90
18041;DHT22;9145;48.588;9.250;2023-06-22T11:06:50;31.60;99.90
18041;DHT22;9145;48.588;9.250;2023-06-22T11:09:17;31.60;99.90
18041;DHT22;9145;48.588;9.250;2023-06-22T11:11:49;31.60;99.90
18041;DHT22;9145;48.588;9.250;2023-06-22T11:14:16;31.50;99.90
18041;DHT22;9145;48.588;9.250;2023-06-22T11:16:42;31.30;99.90
18041;DHT22;9145;48.588;9.250;2023-06-22T11:19:09;31.40;99.90
18041;DHT22;9145;48.588;9.250;2023-06-22T11:21:36;31.60;99.90
18041;DHT22;9145;48.588;9.250;2023-06-22T11:24:03;31.80;99.90
18041;DHT22;9145;48.588;9.250;2023-06-22T11:26:30;32.00;99.90
18041;DHT22;9145;48.588;9.250;2023-06-22T11:28:59;32.10;99.90
18041;DHT22;9145;48.588;9.250;2023-06-22T11:31:26;32.10;99.90
18041;DHT22;9145;48.588;9.250;2023-06-22T11:33:53;32.00;99.90
18041;DHT22;9145;48.588;9.250;2023-06-22T11:36:20;32.00;99.90
18041;DHT22;9145;48.588;9.250;2023-06-22T11:38:47;31.90;99.90
18041;DHT22;9145;48.588;9.250;2023-06-22T11:41:14;32.00;99.90
18041;DHT22;9145;48.588;9.250;2023-06-22T11:43:40;32.00;99.90
18041;DHT22;9145;48.588;9.250;2023-06-22T11:46:09;31.80;99.90
18041;DHT22;9145;48.588;9.250;2023-06-22T11:48:36;31.70;99.90
18041;DHT22;9145;48.588;9.250;2023-06-22T11:51:03;31.60;99.90
18041;DHT22;9145;48.588;9.250;2023-06-22T11:53:31;31.50;99.90
18041;DHT22;9145;48.588;9.250;2023-06-22T11:55:59;31.50;99.90
18041;DHT22;9145;48.588;9.250;2023-06-22T11:58:26;31.60;99.90
18041;DHT22;9145;48.588;9.250;2023-06-22T12:00:53;31.80;99.90
18041;DHT22;9145;48.588;9.250;2023-06-22T12:03:21;32.10;99.90
18041;DHT22;9145;48.588;9.250;2023-06-22T12:05:49;32.10;99.90
18041;DHT22;9145;48.588;9.250;2023-06-22T12:08:16;32.00;99.90
18041;DHT22;9145;48.588;9.250;2023-06-22T12:10:44;32.00;99.90
18041;DHT22;9145;48.588;9.250;2023-06-22T12:13:11;31.80;99.90
18041;DHT22;9145;48.588;9.250;2023-06-22T12:15:38;31.60;99.90
18041;DHT22;9145;48.588;9.250;2023-06-22T12:18:05;31.60;99.90
18041;DHT22;9145;48.588;9.250;2023-06-22T12:20:33;31.60;99.90
18041;DHT22;9145;48.588;9.250;2023-06-22T12:23:00;31.50;99.90
18041;DHT22;9145;48.588;9.250;2023-06-22T12:25:26;31.30;99.90
18041;DHT22;9145;48.588;9.250;2023-06-22T12:27:53;31.30;99.90
18041;DHT22;9145;48.588;9.250;2023-06-22T12:30:20;31.00;99.90
18041;DHT22;9145;48.588;9.250;2023-06-22T12:32:47;30.90;99.90
18041;DHT22;9145;48.588;9.250;2023-06-22T12:35:15;30.80;99.90
18041;DHT22;9145;48.588;9.250;2023-06-22T12:37:43;30.70;99.90
18041;DHT22;9145;48.588;9.250;2023-06-22T12:40:10;30.70;99.90
18041;DHT22;9145;48.588;9.250;2023-06-22T12:42:37;30.60;99.90
18041;DHT22;9145;48.588;9.250;2023-06-22T12:45:05;30.50;99.90
18041;DHT22;9145;48.588;9.250;2023-06-22T12:47:32;30.40;99.90
18041;DHT22;9145;48.588;9.250;2023-06-22T12:49:59;30.40;99.90
18041;DHT22;9145;48.588;9.250;2023-06-22T12:52:25;30.40;99.90
18041;DHT22;9145;48.588;9.250;2023-06-22T12:54:54;30.30;99.90
18041;DHT22;9145;48.588;9.250;2023-06-22T12:57:20;30.30;99.90
18041;DHT22;9145;48.588;9.250;2023-06-22T12:59:47;30.30;99.90
18041;DHT22;9145;48.588;9.250;2023-06-22T13:02:14;30.30;99.90
18041;DHT22;9145;48.588;9.250;2023-06-22T13:04:41;30.20;99.90
18041;DHT22;9145;48.588;9.250;2023-06-22T13:07:08;30.20;99.90
18041;DHT22;9145;48.588;9.250;2023-06-22T13:09:36;30.10;99.90
18041;DHT22;9145;48.588;9.250;2023-06-22T13:12:05;30.10;99.90
18041;DHT22;9145;48.588;9.250;2023-06-22T13:14:32;30.30;99.90
18041;DHT22;9145;48.588;9.250;2023-06-22T13:16:59;30.40;99.90
18041;DHT22;9145;48.588;9.250;2023-06-22T13:19:25;30.70;99.90
18041;DHT22;9145;48.588;9.250;2023-06-22T13:21:54;30.90;99.90
18041;DHT22;9145;48.588;9.250;2023-06-22T13:24:21;31.00;99.90
18041;DHT22;9145;48.588;9.250;2023-06-22T13:26:48;31.10;99.90
18041;DHT22;9145;48.588;9.250;2023-06-22T13:29:16;31.20;99.90
18041;DHT22;9145;48.588;9.250;2023-06-22T13:31:43;31.20;99.90
18041;DHT22;9145;48.588;9.250;2023-06-22T13:34:09;31.40;99.90
18041;DHT22;9145;48.588;9.250;2023-06-22T13:36:36;31.70;99.90
18041;DHT22;9145;48.588;9.250;2023-06-22T13:39:03;31.90;99.90
18041;DHT22;9145;48.588;9.250;2023-06-22T13:41:30;31.80;99.90
18041;DHT22;9145;48.588;9.250;2023-06-22T13:43:57;31.80;99.90
18041;DHT22;9145;48.588;9.250;2023-06-22T13:46:25;31.90;99.90
18041;DHT22;9145;48.588;9.250;2023-06-22T13:48:52;31.80;99.90
18041;DHT22;9145;48.588;9.250;2023-06-22T13:51:19;31.80;99.90
18041;DHT22;9145;48.588;9.250;2023-06-22T13:53:46;31.80;99.90
18041;DHT22;9145;48.588;9.250;2023-06-22T13:56:12;31.90;99.90
18041;DHT22;9145;48.588;9.250;2023-06-22T13:58:39;31.90;99.90
18041;DHT22;9145;48.588;9.250;2023-06-22T14:01:06;31.90;99.90
18041;DHT22;9145;48.588;9.250;2023-06-22T14:03:34;31.90;99.90
18041;DHT22;9145;48.588;9.250;2023-06-22T14:06:01;31.80;99.90
18041;DHT22;9145;48.588;9.250;2023-06-22T14:08:28;31.70;99.90
18041;DHT22;9145;48.588;9.250;2023-06-22T14:10:55;31.70;99.90
18041;DHT22;9145;48.588;9.250;2023-06-22T14:13:21;31.60;99.90
18041;DHT22;9145;48.588;9.250;2023-06-22T14:15:48;31.60;99.90
18041;DHT22;9145;48.588;9.250;2023-06-22T14:18:17;31.60;99.90
18041;DHT22;9145;48.588;9.250;2023-06-22T14:20:45;31.50;99.90
18041;DHT22;9145;48.588;9.250;2023-06-22T14:23:13;31.50;99.90
18041;DHT22;9145;48.588;9.250;2023-06-22T14:25:40;31.50;99.90
18041;DHT22;9145;48.588;9.250;2023-06-22T14:28:07;31.60;99.90
18041;DHT22;9145;48.588;9.250;2023-06-22T14:30:33;31.70;99.90
18041;DHT22;9145;48.588;9.250;2023-06-22T14:33:00;32.10;99.90
18041;DHT22;9145;48.588;9.250;2023-06-22T14:35:27;32.30;99.90
18041;DHT22;9145;48.588;9.250;2023-06-22T14:37:55;32.30;99.90
18041;DHT22;9145;48.588;9.250;2023-06-22T14:40:22;32.10;99.90
18041;DHT22;9145;48.588;9.250;2023-06-22T14:42:49;31.90;99.90
18041;DHT22;9145;48.588;9.250;2023-06-22T14:45:16;32.00;99.90
18041;DHT22;9145;48.588;9.250;2023-06-22T14:47:42;32.30;99.90
18041;DHT22;9145;48.588;9.250;2023-06-22T14:50:09;32.60;99.90
18041;DHT22;9145;48.588;9.250;2023-06-22T14:52:36;32.80;99.90
18041;DHT22;9145;48.588;9.250;2023-06-22T14:55:05;33.10;99.90
18041;DHT22;9145;48.588;9.250;2023-06-22T14:57:32;33.10;99.90
18041;DHT22;9145;48.588;9.250;2023-06-22T14:59:59;33.20;99.90
18041;DHT22;9145;48.588;9.250;2023-06-22T15:02:27;32.80;99.90
18041;DHT22;9145;48.588;9.250;2023-06-22T15:04:54;32.50;99.90
18041;DHT22;9145;48.588;9.250;2023-06-22T15:07:21;32.40;99.90
18041;DHT22;9145;48.588;9.250;2023-06-22T15:09:48;32.30;99.90
18041;DHT22;9145;48.588;9.250;2023-06-22T15:12:16;32.20;99.90
18041;DHT22;9145;48.588;9.250;2023-06-22T15:14:43;32.30;99.90
18041;DHT22;9145;48.588;9.250;2023-06-22T15:17:10;32.30;99.90
18041;DHT22;9145;48.588;9.250;2023-06-22T15:19:39;32.60;99.10
18041;DHT22;9145;48.588;9.250;2023-06-22T15:22:07;32.90;99.10
18041;DHT22;9145;48.588;9.250;2023-06-22T15:24:34;32.80;98.30
18041;DHT22;9145;48.588;9.250;2023-06-22T15:27:01;32.70;94.50
18041;DHT22;9145;48.588;9.250;2023-06-22T15:29:29;32.00;94.40
18041;DHT22;9145;48.588;9.250;2023-06-22T15:31:59;31.60;94.20
18041;DHT22;9145;48.588;9.250;2023-06-22T15:34:26;31.30;95.80
18041;DHT22;9145;48.588;9.250;2023-06-22T15:36:53;31.10;95.60
18041;DHT22;9145;48.588;9.250;2023-06-22T15:39:20;31.00;96.00
18041;DHT22;9145;48.588;9.250;2023-06-22T15:41:48;30.90;95.40
18041;DHT22;9145;48.588;9.250;2023-06-22T15:44:15;30.70;95.70
18041;DHT22;9145;48.588;9.250;2023-06-22T15:46:43;30.70;95.00